createdAt,value
2018-06-08T00:00:17.289Z,42.05
2018-06-08T00:00:57.842Z,41.95
2018-06-08T00:01:38.425Z,41.86
2018-06-08T00:02:18.959Z,41.86
2018-06-08T00:02:59.508Z,41.76
2018-06-08T00:03:40.132Z,42.05
2018-06-08T00:04:20.764Z,41.18
2018-06-08T00:05:01.334Z,41.56
2018-06-08T00:05:41.908Z,41.38
2018-06-08T00:06:22.527Z,41.28
2018-06-08T00:07:03.089Z,41.56
2018-06-08T00:07:43.659Z,41.47
2018-06-08T00:08:24.216Z,41.28
2018-06-08T00:09:04.775Z,41.28
2018-06-08T00:09:45.344Z,41.47
2018-06-08T00:10:25.885Z,41.28
2018-06-08T00:11:06.448Z,41.95
2018-06-08T00:11:47.008Z,41.95
2018-06-08T00:12:27.585Z,41.86
2018-06-08T00:13:08.169Z,41.95
2018-06-08T00:13:48.747Z,41.76
2018-06-08T00:14:29.304Z,42.33
2018-06-08T00:15:09.865Z,42.33
2018-06-08T00:15:50.415Z,42.05
2018-06-08T00:16:30.974Z,42.43
2018-06-08T00:17:11.533Z,42.05
2018-06-08T00:17:52.085Z,42.24
2018-06-08T00:18:32.637Z,41.95
2018-06-08T00:19:13.194Z,42.33
2018-06-08T00:19:53.780Z,41.95
2018-06-08T00:20:34.348Z,42.33
2018-06-08T00:21:14.921Z,42.33
2018-06-08T00:21:55.493Z,42.24
2018-06-08T00:22:36.036Z,42.24
2018-06-08T00:23:16.592Z,42.05
2018-06-08T00:23:57.151Z,42.05
2018-06-08T00:24:37.728Z,42.33
2018-06-08T00:25:18.293Z,42.05
2018-06-08T00:25:58.869Z,42.33
2018-06-08T00:26:39.433Z,42.43
2018-06-08T00:27:19.992Z,42.53
2018-06-08T00:28:00.554Z,42.43
2018-06-08T00:28:41.116Z,42.63
2018-06-08T00:29:21.702Z,42.72
2018-06-08T00:30:02.288Z,42.53
2018-06-08T00:30:42.828Z,42.43
2018-06-08T00:31:23.374Z,42.43
2018-06-08T00:32:03.936Z,42.72
2018-06-08T00:32:44.495Z,42.82
2018-06-08T00:33:25.041Z,42.91
2018-06-08T00:34:05.603Z,42.91
2018-06-08T00:34:46.174Z,42.82
2018-06-08T00:35:26.749Z,43.49
2018-06-08T00:36:07.309Z,43.3
2018-06-08T00:36:47.880Z,43.2
2018-06-08T00:37:28.440Z,43.49
2018-06-08T00:38:08.985Z,43.49
2018-06-08T00:38:49.553Z,43.3
2018-06-08T00:39:30.110Z,43.4
2018-06-08T00:40:10.660Z,43.2
2018-06-08T00:40:51.210Z,43.3
2018-06-08T00:41:31.785Z,43.2
2018-06-08T00:42:12.346Z,43.18
2018-06-08T00:42:52.940Z,42.99
2018-06-08T00:43:33.504Z,43.28
2018-06-08T00:44:14.074Z,43.85
2018-06-08T00:44:54.667Z,43.59
2018-06-08T00:45:35.244Z,43.37
2018-06-08T00:46:15.796Z,43.47
2018-06-08T00:46:56.358Z,43.95
2018-06-08T00:47:36.952Z,44.07
2018-06-08T00:48:17.519Z,43.76
2018-06-08T00:48:58.090Z,43.66
2018-06-08T00:49:39.095Z,43.57
2018-06-08T00:50:19.637Z,43.85
2018-06-08T00:51:00.201Z,43.76
2018-06-08T00:51:40.734Z,44.24
2018-06-08T00:52:21.286Z,43.85
2018-06-08T00:53:01.848Z,43.66
2018-06-08T00:53:42.389Z,43.95
2018-06-08T00:54:22.953Z,44.05
2018-06-08T00:55:03.486Z,44.14
2018-06-08T00:55:44.044Z,44.14
2018-06-08T00:56:24.633Z,44.05
2018-06-08T00:57:05.197Z,44.05
2018-06-08T00:57:45.766Z,43.95
2018-06-08T00:58:26.336Z,44.14
2018-06-08T00:59:06.894Z,44.14
2018-06-08T00:59:47.442Z,44.34
2018-06-08T01:00:27.997Z,44.14
2018-06-08T01:01:08.549Z,44.24
2018-06-08T01:01:49.103Z,44.05
2018-06-08T01:02:29.647Z,44.14
2018-06-08T01:03:10.202Z,44.14
2018-06-08T01:03:50.761Z,44.14
2018-06-08T01:04:31.346Z,44.05
2018-06-08T01:05:11.912Z,43.85
2018-06-08T01:05:52.493Z,44.14
2018-06-08T01:06:33.051Z,43.85
2018-06-08T01:07:13.612Z,44.05
2018-06-08T01:07:54.154Z,44.14
2018-06-08T01:08:34.708Z,43.85
2018-06-08T01:09:15.263Z,44.14
2018-06-08T01:09:55.816Z,44.14
2018-06-08T01:10:36.360Z,44.72
2018-06-08T01:11:16.929Z,44.24
2018-06-08T01:11:57.508Z,43.85
2018-06-08T01:12:38.056Z,44.62
2018-06-08T01:13:18.627Z,44.24
2018-06-08T01:13:59.198Z,45.29
2018-06-08T01:14:39.758Z,45.1
2018-06-08T01:15:20.319Z,45.68
2018-06-08T01:16:00.909Z,45.68
2018-06-08T01:16:41.495Z,45.78
2018-06-08T01:17:22.133Z,45.49
2018-06-08T01:18:02.728Z,45.49
2018-06-08T01:18:43.256Z,45.49
2018-06-08T01:19:23.827Z,45.49
2018-06-08T01:20:04.395Z,45.59
2018-06-08T01:20:44.922Z,45.29
2018-06-08T01:21:25.487Z,45.78
2018-06-08T01:22:06.021Z,45.68
2018-06-08T01:22:46.659Z,45.29
2018-06-08T01:23:27.214Z,45.2
2018-06-08T01:24:07.768Z,45.29
2018-06-08T01:24:48.324Z,45.39
2018-06-08T01:25:28.865Z,45.29
2018-06-08T01:26:09.448Z,45.2
2018-06-08T01:26:50.026Z,45.59
2018-06-08T01:27:30.627Z,45.78
2018-06-08T01:28:11.176Z,45.78
2018-06-08T01:28:51.721Z,45.68
2018-06-08T01:29:32.286Z,45.87
2018-06-08T01:30:12.881Z,45.97
2018-06-08T01:30:53.464Z,46.64
2018-06-08T01:31:34.056Z,46.74
2018-06-08T01:32:14.592Z,46.62
2018-06-08T01:32:55.144Z,46.06
2018-06-08T01:33:35.732Z,46.23
2018-06-08T01:34:16.330Z,46.36
2018-06-08T01:34:56.892Z,46.55
2018-06-08T01:35:37.448Z,46.43
2018-06-08T01:36:18.142Z,46.91
2018-06-08T01:36:58.745Z,46.81
2018-06-08T01:37:39.333Z,46.43
2018-06-08T01:38:19.830Z,46.43
2018-06-08T01:39:00.403Z,46.43
2018-06-08T01:39:40.951Z,46.33
2018-06-08T01:40:21.495Z,46.53
2018-06-08T01:41:02.042Z,46.33
2018-06-08T01:41:42.602Z,46.33
2018-06-08T01:42:23.191Z,46.62
2018-06-08T01:43:03.772Z,46.62
2018-06-08T01:43:44.361Z,47.2
2018-06-08T01:44:24.906Z,47.68
2018-06-08T01:45:05.458Z,47.2
2018-06-08T01:45:45.999Z,47.1
2018-06-08T01:46:26.558Z,47.2
2018-06-08T01:47:07.096Z,47.39
2018-06-08T01:47:47.683Z,47.3
2018-06-08T01:48:28.229Z,47.77
2018-06-08T01:49:08.807Z,47.68
2018-06-08T01:49:49.379Z,47.1
2018-06-08T01:50:29.953Z,47.1
2018-06-08T01:51:10.501Z,47.2
2018-06-08T01:51:51.064Z,46.81
2018-06-08T01:52:31.654Z,47
2018-06-08T01:53:12.222Z,46.33
2018-06-08T01:53:52.816Z,46.33
2018-06-08T01:54:33.382Z,46.91
2018-06-08T01:55:13.942Z,46.91
2018-06-08T01:55:54.505Z,46.91
2018-06-08T01:56:35.070Z,46.81
2018-06-08T01:57:15.619Z,46.81
2018-06-08T01:57:56.205Z,46.91
2018-06-08T01:58:36.767Z,47.1
2018-06-08T01:59:17.337Z,47
2018-06-08T01:59:57.888Z,47
2018-06-08T02:00:38.485Z,47.1
2018-06-08T02:01:19.057Z,47.1
2018-06-08T02:01:59.614Z,47.58
2018-06-08T02:02:40.180Z,47.77
2018-06-08T02:03:20.728Z,47.87
2018-06-08T02:04:01.288Z,47.1
2018-06-08T02:04:41.855Z,47.58
2018-06-08T02:05:22.449Z,47.39
2018-06-08T02:06:03.037Z,47.2
2018-06-08T02:06:43.595Z,47.1
2018-06-08T02:07:24.154Z,47.2
2018-06-08T02:08:04.685Z,47
2018-06-08T02:08:45.260Z,46.91
2018-06-08T02:09:25.815Z,47
2018-06-08T02:10:06.378Z,47.49
2018-06-08T02:10:46.928Z,46.81
2018-06-08T02:11:27.543Z,46.81
2018-06-08T02:12:08.097Z,46.23
2018-06-08T02:12:48.647Z,46.43
2018-06-08T02:13:29.188Z,46.53
2018-06-08T02:14:09.749Z,46.43
2018-06-08T02:14:50.315Z,46.72
2018-06-08T02:15:30.859Z,46.72
2018-06-08T02:16:11.431Z,46.23
2018-06-08T02:16:52.010Z,46.53
2018-06-08T02:17:32.571Z,46.72
2018-06-08T02:18:13.142Z,46.21
2018-06-08T02:18:53.696Z,46.23
2018-06-08T02:19:34.270Z,47.1
2018-06-08T02:20:14.838Z,46.81
2018-06-08T02:20:55.388Z,46.81
2018-06-08T02:21:35.957Z,47
2018-06-08T02:22:16.552Z,46.59
2018-06-08T02:22:57.117Z,46.69
2018-06-08T02:23:37.666Z,46.81
2018-06-08T02:24:18.256Z,46.53
2018-06-08T02:24:58.866Z,46.91
2018-06-08T02:25:39.443Z,46.62
2018-06-08T02:26:19.979Z,46.31
2018-06-08T02:27:00.575Z,46.43
2018-06-08T02:27:41.150Z,46.5
2018-06-08T02:28:21.690Z,46.69
2018-06-08T02:29:02.283Z,46.43
2018-06-08T02:29:42.844Z,46.21
2018-06-08T02:30:23.561Z,46.79
2018-06-08T02:31:03.983Z,46.98
2018-06-08T02:31:44.546Z,46.89
2018-06-08T02:32:25.101Z,46.89
2018-06-08T02:33:05.690Z,47.08
2018-06-08T02:33:46.279Z,46.79
2018-06-08T02:34:26.830Z,46.89
2018-06-08T02:35:07.387Z,46.69
2018-06-08T02:35:47.956Z,47.08
2018-06-08T02:36:28.541Z,47.27
2018-06-08T02:37:09.129Z,47.17
2018-06-08T02:37:49.702Z,47.75
2018-06-08T02:38:30.265Z,47.56
2018-06-08T02:39:10.815Z,47.85
2018-06-08T02:39:51.408Z,47.08
2018-06-08T02:40:31.962Z,47.27
2018-06-08T02:41:12.537Z,47.08
2018-06-08T02:41:53.098Z,47.46
2018-06-08T02:42:33.735Z,47.08
2018-06-08T02:43:14.219Z,47.17
2018-06-08T02:43:54.783Z,47.27
2018-06-08T02:44:35.356Z,46.98
2018-06-08T02:45:15.899Z,47.27
2018-06-08T02:45:56.491Z,47.17
2018-06-08T02:46:37.072Z,47.17
2018-06-08T02:47:17.634Z,47.17
2018-06-08T02:47:58.202Z,46.89
2018-06-08T02:48:38.754Z,46.98
2018-06-08T02:49:19.342Z,46.59
2018-06-08T02:49:59.909Z,47.08
2018-06-08T02:50:40.477Z,46.79
2018-06-08T02:51:21.051Z,46.69
2018-06-08T02:52:01.583Z,46.59
2018-06-08T02:52:42.136Z,46.89
2018-06-08T02:53:22.688Z,46.79
2018-06-08T02:54:03.255Z,46.98
2018-06-08T02:54:43.831Z,47.08
2018-06-08T02:55:24.405Z,47.08
2018-06-08T02:56:04.983Z,47.56
2018-06-08T02:56:45.561Z,47.66
2018-06-08T02:57:26.101Z,47.56
2018-06-08T02:58:06.682Z,47.66
2018-06-08T02:58:47.277Z,47.66
2018-06-08T02:59:27.847Z,48.43
2018-06-08T03:00:08.426Z,48.13
2018-06-08T03:00:48.963Z,48.13
2018-06-08T03:01:29.510Z,48.43
2018-06-08T03:02:10.150Z,48.71
2018-06-08T03:02:50.741Z,48.9
2018-06-08T03:03:31.290Z,49
2018-06-08T03:04:11.809Z,48.81
2018-06-08T03:04:52.383Z,48.52
2018-06-08T03:05:32.953Z,47.94
2018-06-08T03:06:13.529Z,48.04
2018-06-08T03:06:54.102Z,47.66
2018-06-08T03:07:34.671Z,47.56
2018-06-08T03:08:15.247Z,47.56
2018-06-08T03:08:55.827Z,47.36
2018-06-08T03:09:36.390Z,47.56
2018-06-08T03:10:16.948Z,47.66
2018-06-08T03:10:57.527Z,47.75
2018-06-08T03:11:38.136Z,47.17
2018-06-08T03:12:18.646Z,47.27
2018-06-08T03:12:59.222Z,47.27
2018-06-08T03:13:39.797Z,46.89
2018-06-08T03:14:20.365Z,46.98
2018-06-08T03:15:00.925Z,47.17
2018-06-08T03:15:41.485Z,46.86
2018-06-08T03:16:22.037Z,47.17
2018-06-08T03:17:02.590Z,46.98
2018-06-08T03:17:43.154Z,47.27
2018-06-08T03:18:23.725Z,47.36
2018-06-08T03:19:04.294Z,47.36
2018-06-08T03:19:44.847Z,46.98
2018-06-08T03:20:25.430Z,47.56
2018-06-08T03:21:05.985Z,47.75
2018-06-08T03:21:46.540Z,47.46
2018-06-08T03:22:27.085Z,47.82
2018-06-08T03:23:07.647Z,47.85
2018-06-08T03:23:48.218Z,47.66
2018-06-08T03:24:28.804Z,47.56
2018-06-08T03:25:09.350Z,47.17
2018-06-08T03:25:49.917Z,47.05
2018-06-08T03:26:30.484Z,47.63
2018-06-08T03:27:11.063Z,47.75
2018-06-08T03:27:51.631Z,47.66
2018-06-08T03:28:32.218Z,47.94
2018-06-08T03:29:12.781Z,48.13
2018-06-08T03:29:53.336Z,49.19
2018-06-08T03:30:33.889Z,48.71
2018-06-08T03:31:14.460Z,48.9
2018-06-08T03:31:55.020Z,49.19
2018-06-08T03:32:35.594Z,48.9
2018-06-08T03:33:16.264Z,48.9
2018-06-08T03:33:56.960Z,49
2018-06-08T03:34:39.528Z,49.1
2018-06-08T03:35:21.475Z,49.1
2018-06-08T03:36:05.787Z,49.48
2018-06-08T03:36:47.767Z,49.38
2018-06-08T03:37:28.847Z,49.29
2018-06-08T03:38:09.994Z,49.38
2018-06-08T03:38:51.954Z,49.17
2018-06-08T03:39:34.025Z,49.46
2018-06-08T03:40:17.213Z,48.59
2018-06-08T03:40:58.984Z,48.88
2018-06-08T03:41:41.233Z,48.61
2018-06-08T03:42:24.867Z,48.9
2018-06-08T03:43:07.038Z,48.79
2018-06-08T03:43:48.325Z,49.07
2018-06-08T03:44:30.449Z,49.07
2018-06-08T03:45:11.827Z,48.88
2018-06-08T03:45:53.113Z,48.81
2018-06-08T03:46:34.241Z,49.07
2018-06-08T03:47:15.247Z,48.4
2018-06-08T03:47:56.324Z,48.3
2018-06-08T03:48:37.481Z,48.33
2018-06-08T03:49:19.288Z,48.97
2018-06-08T03:50:00.493Z,48.4
2018-06-08T03:50:41.495Z,48.13
2018-06-08T03:51:22.438Z,48.23
2018-06-08T03:52:03.561Z,48.11
2018-06-08T03:52:45.266Z,48.11
2018-06-08T03:53:27.293Z,47.92
2018-06-08T03:54:08.417Z,48.21
2018-06-08T03:54:50.140Z,48.13
2018-06-08T03:55:31.278Z,47.66
2018-06-08T03:56:12.311Z,47.66
2018-06-08T03:56:53.242Z,47.53
2018-06-08T03:57:34.254Z,48.13
2018-06-08T03:58:16.230Z,48.21
2018-06-08T03:58:57.360Z,48.02
2018-06-08T03:59:38.358Z,47.92
2018-06-08T04:00:19.573Z,48.21
2018-06-08T04:01:00.427Z,48.33
2018-06-08T04:01:42.099Z,48.04
2018-06-08T04:02:23.172Z,48.21
2018-06-08T04:03:04.167Z,48.11
2018-06-08T04:03:45.035Z,47.94
2018-06-08T04:04:26.249Z,48.21
2018-06-08T04:05:07.381Z,47.92
2018-06-08T04:05:48.494Z,48.21
2018-06-08T04:06:29.435Z,48.11
2018-06-08T04:07:10.208Z,48.11
2018-06-08T04:07:50.859Z,48.21
2018-06-08T04:08:32.824Z,47.82
2018-06-08T04:09:13.589Z,47.82
2018-06-08T04:09:54.171Z,48.3
2018-06-08T04:10:34.739Z,48.23
2018-06-08T04:11:15.334Z,49.67
2018-06-08T04:11:56.874Z,49.87
2018-06-08T04:12:37.448Z,49.67
2018-06-08T04:13:18.137Z,48.9
2018-06-08T04:13:58.813Z,49
2018-06-08T04:14:39.478Z,48.43
2018-06-08T04:15:20.132Z,49
2018-06-08T04:16:00.833Z,48.25
2018-06-08T04:16:41.479Z,48.43
2018-06-08T04:17:22.378Z,48.16
2018-06-08T04:18:03.096Z,48.45
2018-06-08T04:18:43.919Z,48.45
2018-06-08T04:19:24.496Z,47.58
2018-06-08T04:20:05.062Z,48.16
2018-06-08T04:20:45.613Z,48.07
2018-06-08T04:21:26.231Z,47.39
2018-06-08T04:22:06.758Z,47.58
2018-06-08T04:22:47.336Z,47.77
2018-06-08T04:23:27.918Z,47.97
2018-06-08T04:24:08.483Z,48.45
2018-06-08T04:24:49.077Z,48.45
2018-06-08T04:25:29.643Z,47.68
2018-06-08T04:26:10.212Z,47.68
2018-06-08T04:26:50.766Z,47.77
2018-06-08T04:27:31.737Z,47.58
2018-06-08T04:28:12.622Z,47.2
2018-06-08T04:28:53.648Z,47.22
2018-06-08T04:29:35.503Z,47.89
2018-06-08T04:30:16.476Z,47.22
2018-06-08T04:30:57.552Z,47.31
2018-06-08T04:31:38.672Z,47.03
2018-06-08T04:32:19.772Z,46.84
2018-06-08T04:33:01.028Z,46.64
2018-06-08T04:33:42.023Z,45.59
2018-06-08T04:34:23.039Z,46.45
2018-06-08T04:35:04.067Z,46.55
2018-06-08T04:35:45.098Z,47.03
2018-06-08T04:36:26.170Z,47.13
2018-06-08T04:37:09.101Z,46.84
2018-06-08T04:37:50.281Z,46.64
2018-06-08T04:38:32.193Z,46.45
2018-06-08T04:39:13.303Z,47.03
2018-06-08T04:39:54.563Z,47.03
2018-06-08T04:40:35.609Z,46.84
2018-06-08T04:41:16.546Z,47.03
2018-06-08T04:41:57.465Z,47.03
2018-06-08T04:42:38.547Z,46.55
2018-06-08T04:43:19.644Z,46.64
2018-06-08T04:44:00.791Z,46.84
2018-06-08T04:44:41.995Z,46.77
2018-06-08T04:45:23.145Z,46.67
2018-06-08T04:46:04.271Z,46.74
2018-06-08T04:46:46.213Z,46.67
2018-06-08T04:47:27.364Z,46.55
2018-06-08T04:48:08.473Z,45.51
2018-06-08T04:48:49.620Z,45.78
2018-06-08T04:49:30.491Z,45.9
2018-06-08T04:50:11.470Z,45.51
2018-06-08T04:50:54.236Z,45.68
2018-06-08T04:51:35.309Z,45.87
2018-06-08T04:52:16.325Z,45.68
2018-06-08T04:52:57.419Z,45.78
2018-06-08T04:53:38.682Z,46.36
2018-06-08T04:54:19.762Z,46.55
2018-06-08T04:55:00.992Z,45.78
2018-06-08T04:55:42.548Z,45.78
2018-06-08T04:56:23.637Z,45.97
2018-06-08T04:57:05.621Z,46.06
2018-06-08T04:57:46.737Z,46.74
2018-06-08T04:58:27.954Z,46.77
2018-06-08T04:59:09.127Z,46.26
2018-06-08T04:59:51.314Z,47.03
2018-06-08T05:00:32.338Z,47.13
2018-06-08T05:01:13.560Z,47.15
2018-06-08T05:01:54.650Z,46.86
2018-06-08T05:02:35.954Z,46.95
2018-06-08T05:03:17.129Z,47.05
2018-06-08T05:03:58.200Z,47.05
2018-06-08T05:04:39.358Z,46.86
2018-06-08T05:05:20.207Z,46.47
2018-06-08T05:06:01.536Z,46.38
2018-06-08T05:06:42.654Z,46.77
2018-06-08T05:07:23.714Z,46.57
2018-06-08T05:08:04.865Z,46.57
2018-06-08T05:08:46.061Z,46.57
2018-06-08T05:09:27.742Z,46.57
2018-06-08T05:10:08.847Z,46.09
2018-06-08T05:10:50.050Z,45.8
2018-06-08T05:11:31.251Z,46.09
2018-06-08T05:12:12.487Z,45.61
2018-06-08T05:12:54.298Z,45.9
2018-06-08T05:13:35.462Z,45.8
2018-06-08T05:14:16.697Z,46.57
2018-06-08T05:14:57.900Z,45.9
2018-06-08T05:15:39.030Z,45.61
2018-06-08T05:16:20.155Z,45.7
2018-06-08T05:17:02.048Z,45.8
2018-06-08T05:17:43.155Z,45.8
2018-06-08T05:18:24.187Z,45.8
2018-06-08T05:19:05.969Z,45.51
2018-06-08T05:19:47.045Z,46.47
2018-06-08T05:20:29.946Z,46.09
2018-06-08T05:21:10.947Z,45.73
2018-06-08T05:21:51.936Z,45.34
2018-06-08T05:22:33.011Z,45.44
2018-06-08T05:23:14.130Z,45.53
2018-06-08T05:23:55.242Z,45.73
2018-06-08T05:24:36.323Z,45.53
2018-06-08T05:25:18.011Z,45.53
2018-06-08T05:25:59.056Z,45.84
2018-06-08T05:26:40.123Z,45.17
2018-06-08T05:27:21.233Z,45.36
2018-06-08T05:28:02.227Z,44.98
2018-06-08T05:28:43.308Z,44.79
2018-06-08T05:29:24.567Z,44.62
2018-06-08T05:30:05.846Z,43.85
2018-06-08T05:30:46.996Z,43.65
2018-06-08T05:31:28.226Z,43.55
2018-06-08T05:32:09.351Z,43.65
2018-06-08T05:32:50.504Z,44.04
2018-06-08T05:33:31.590Z,43.96
2018-06-08T05:34:12.446Z,43.27
2018-06-08T05:34:53.387Z,43.48
2018-06-08T05:35:34.568Z,43.67
2018-06-08T05:36:15.697Z,43.19
2018-06-08T05:36:56.680Z,42.9
2018-06-08T05:37:37.827Z,42.9
2018-06-08T05:38:18.923Z,43
2018-06-08T05:38:59.996Z,43.12
2018-06-08T05:39:41.154Z,42.73
2018-06-08T05:40:22.129Z,42.25
2018-06-08T05:41:02.970Z,42.44
2018-06-08T05:41:43.533Z,42.44
2018-06-08T05:42:24.101Z,42.35
2018-06-08T05:43:04.689Z,42.44
2018-06-08T05:43:45.254Z,42.56
2018-06-08T05:44:25.811Z,42.56
2018-06-08T05:45:06.345Z,42.08
2018-06-08T05:45:46.957Z,41.98
2018-06-08T05:46:27.529Z,41.98
2018-06-08T05:47:08.088Z,41.3
2018-06-08T05:47:48.666Z,41.6
2018-06-08T05:48:29.243Z,41.2
2018-06-08T05:49:09.842Z,41.03
2018-06-08T05:49:50.420Z,41.13
2018-06-08T05:50:30.971Z,41.03
2018-06-08T05:51:11.537Z,40.84
2018-06-08T05:51:52.201Z,41.23
2018-06-08T05:52:32.872Z,40.77
2018-06-08T05:53:13.442Z,40.57
2018-06-08T05:53:54.009Z,40.26
2018-06-08T05:54:34.701Z,40.47
2018-06-08T05:55:15.292Z,40.28
2018-06-08T05:55:55.888Z,40.28
2018-06-08T05:56:36.479Z,40.47
2018-06-08T05:57:17.123Z,40.19
2018-06-08T05:57:57.708Z,40.11
2018-06-08T05:58:38.277Z,39.82
2018-06-08T05:59:18.841Z,39.92
2018-06-08T05:59:59.435Z,40.01
2018-06-08T06:00:40.007Z,39.53
2018-06-08T06:01:20.583Z,39.82
2018-06-08T06:02:01.141Z,39.92
2018-06-08T06:02:41.729Z,39.92
2018-06-08T06:03:22.300Z,39.45
2018-06-08T06:04:03.071Z,39.84
2018-06-08T06:04:43.713Z,39.84
2018-06-08T06:05:24.285Z,39.26
2018-06-08T06:06:04.844Z,38.97
2018-06-08T06:06:45.468Z,39.26
2018-06-08T06:07:26.034Z,38.97
2018-06-08T06:08:06.596Z,38.97
2018-06-08T06:08:47.176Z,38.99
2018-06-08T06:09:27.737Z,38.99
2018-06-08T06:10:08.316Z,39.47
2018-06-08T06:10:48.892Z,38.89
2018-06-08T06:11:29.454Z,38.7
2018-06-08T06:12:10.017Z,38.7
2018-06-08T06:12:50.607Z,37.44
2018-06-08T06:13:31.184Z,37.55
2018-06-08T06:14:11.815Z,37.55
2018-06-08T06:14:52.498Z,37.44
2018-06-08T06:15:33.055Z,37.34
2018-06-08T06:16:13.631Z,37.55
2018-06-08T06:16:54.218Z,37.26
2018-06-08T06:17:34.887Z,37.07
2018-06-08T06:18:15.450Z,37.46
2018-06-08T06:18:56.025Z,37.55
2018-06-08T06:19:36.592Z,38.43
2018-06-08T06:20:17.150Z,37.36
2018-06-08T06:20:57.743Z,36.4
2018-06-08T06:21:38.287Z,36
2018-06-08T06:22:18.873Z,36.4
2018-06-08T06:22:59.483Z,37.55
2018-06-08T06:23:40.107Z,37.85
2018-06-08T06:24:20.704Z,37.17
2018-06-08T06:25:01.274Z,37.36
2018-06-08T06:25:41.841Z,37.55
2018-06-08T06:26:22.403Z,37.55
2018-06-08T06:27:02.972Z,37.55
2018-06-08T06:27:43.555Z,37.94
2018-06-08T06:28:24.134Z,37.36
2018-06-08T06:29:04.709Z,37.26
2018-06-08T06:29:45.256Z,37.26
2018-06-08T06:30:25.871Z,37.65
2018-06-08T06:31:06.433Z,37.26
2018-06-08T06:31:46.993Z,37.57
2018-06-08T06:32:27.566Z,37.19
2018-06-08T06:33:08.132Z,36.8
2018-06-08T06:33:48.745Z,36.8
2018-06-08T06:34:29.289Z,37.38
2018-06-08T06:35:09.851Z,37.57
2018-06-08T06:35:50.418Z,36.8
2018-06-08T06:36:30.986Z,36.72
2018-06-08T06:37:11.574Z,36.43
2018-06-08T06:37:52.174Z,36.43
2018-06-08T06:38:32.778Z,37.4
2018-06-08T06:39:13.348Z,37.59
2018-06-08T06:39:53.911Z,38.07
2018-06-08T06:40:34.471Z,38.66
2018-06-08T06:41:15.068Z,39.16
2018-06-08T06:41:55.658Z,38.96
2018-06-08T06:42:36.214Z,37.81
2018-06-08T06:43:16.779Z,36.25
2018-06-08T06:43:57.377Z,37.03
2018-06-08T06:44:37.977Z,37.81
2018-06-08T06:45:18.562Z,37.32
2018-06-08T06:45:59.149Z,37.71
2018-06-08T06:46:39.731Z,36.93
2018-06-08T06:47:20.315Z,35.96
2018-06-08T06:48:00.893Z,36.64
2018-06-08T06:48:41.468Z,36.16
2018-06-08T06:49:22.069Z,36.25
2018-06-08T06:50:02.885Z,36.44
2018-06-08T06:50:43.462Z,36.44
2018-06-08T06:51:24.037Z,37.41
2018-06-08T06:52:04.615Z,36.44
2018-06-08T06:52:45.216Z,35.86
2018-06-08T06:53:25.775Z,36.16
2018-06-08T06:54:06.352Z,36.06
2018-06-08T06:54:46.973Z,37.05
2018-06-08T06:55:27.658Z,36.74
2018-06-08T06:56:08.230Z,37.23
2018-06-08T06:56:48.848Z,36.95
2018-06-08T06:57:29.445Z,36.76
2018-06-08T06:58:10.007Z,35.78
2018-06-08T06:58:50.627Z,35.3
2018-06-08T06:59:31.227Z,36.36
2018-06-08T07:00:11.814Z,35.98
2018-06-08T07:00:52.437Z,35.51
2018-06-08T07:01:33.136Z,34.93
2018-06-08T07:02:13.715Z,34.62
2018-06-08T07:02:54.282Z,34.35
2018-06-08T07:03:34.859Z,34.43
2018-06-08T07:04:15.429Z,34.93
2018-06-08T07:04:56.002Z,34.83
2018-06-08T07:05:36.582Z,35.61
2018-06-08T07:06:17.422Z,36.58
2018-06-08T07:06:58.010Z,36.29
2018-06-08T07:07:38.626Z,36.27
2018-06-08T07:08:19.176Z,36.29
2018-06-08T07:08:59.792Z,35.51
2018-06-08T07:09:40.506Z,35.13
2018-06-08T07:10:21.036Z,34.64
2018-06-08T07:11:01.631Z,34.25
2018-06-08T07:11:42.220Z,34.44
2018-06-08T07:12:22.800Z,35.9
2018-06-08T07:13:03.352Z,36.38
2018-06-08T07:13:43.948Z,36.58
2018-06-08T07:14:24.546Z,37.07
2018-06-08T07:15:05.192Z,35.61
2018-06-08T07:15:45.738Z,34.93
2018-06-08T07:16:26.348Z,35.03
2018-06-08T07:17:06.937Z,35.43
2018-06-08T07:17:47.492Z,35.53
2018-06-08T07:18:28.039Z,36.11
2018-06-08T07:19:08.632Z,36.5
2018-06-08T07:19:49.224Z,35.53
2018-06-08T07:20:29.780Z,34.27
2018-06-08T07:21:10.448Z,33.59
2018-06-08T07:21:51.056Z,33.39
2018-06-08T07:22:31.647Z,34.27
2018-06-08T07:23:12.329Z,33.69
2018-06-08T07:23:52.876Z,34.56
2018-06-08T07:24:33.773Z,35.63
2018-06-08T07:25:14.415Z,35.82
2018-06-08T07:25:55.004Z,36.6
2018-06-08T07:26:35.601Z,36.4
2018-06-08T07:27:16.183Z,36.6
2018-06-08T07:27:56.745Z,35.82
2018-06-08T07:28:37.316Z,36.22
2018-06-08T07:29:17.890Z,36.22
2018-06-08T07:29:58.460Z,36.42
2018-06-08T07:30:39.037Z,35.45
2018-06-08T07:31:19.613Z,35.45
2018-06-08T07:32:00.231Z,34.77
2018-06-08T07:32:40.745Z,35.06
2018-06-08T07:33:21.314Z,34.38
2018-06-08T07:34:01.897Z,33.41
2018-06-08T07:34:42.475Z,33.31
2018-06-08T07:35:23.078Z,33.51
2018-06-08T07:36:03.614Z,33.61
2018-06-08T07:36:44.184Z,33.9
2018-06-08T07:37:24.757Z,33.31
2018-06-08T07:38:05.425Z,33.51
2018-06-08T07:38:45.988Z,34.87
2018-06-08T07:39:26.556Z,33.41
2018-06-08T07:40:07.225Z,33.51
2018-06-08T07:40:48.704Z,33.7
2018-06-08T07:41:28.748Z,34.87
2018-06-08T07:42:09.341Z,34.58
2018-06-08T07:42:50.056Z,34.38
2018-06-08T07:43:31.004Z,34.88
2018-06-08T07:44:11.587Z,34.5
2018-06-08T07:44:52.155Z,35.47
2018-06-08T07:45:32.872Z,35.17
2018-06-08T07:46:13.461Z,34.79
2018-06-08T07:46:54.278Z,34.4
2018-06-08T07:47:35.010Z,34.88
2018-06-08T07:48:15.651Z,34.11
2018-06-08T07:48:56.353Z,32.84
2018-06-08T07:49:36.937Z,33.53
2018-06-08T07:50:17.512Z,35.17
2018-06-08T07:50:58.106Z,35.37
2018-06-08T07:51:38.683Z,35.47
2018-06-08T07:52:19.271Z,35.47
2018-06-08T07:52:59.851Z,34.22
2018-06-08T07:53:40.428Z,33.54
2018-06-08T07:54:21.009Z,33.43
2018-06-08T07:55:01.645Z,34.52
2018-06-08T07:55:42.191Z,33.06
2018-06-08T07:56:22.795Z,32.67
2018-06-08T07:57:03.375Z,32.86
2018-06-08T07:57:43.942Z,32.57
2018-06-08T07:58:26.133Z,32.47
2018-06-08T07:59:06.735Z,32.67
2018-06-08T07:59:47.315Z,34.12
2018-06-08T08:00:27.895Z,33.73
2018-06-08T08:01:08.477Z,31.88
2018-06-08T08:01:49.046Z,32.47
2018-06-08T08:02:29.593Z,32.76
2018-06-08T08:03:10.180Z,31.7
2018-06-08T08:03:50.750Z,31.11
2018-06-08T08:04:31.326Z,30.91
2018-06-08T08:05:11.935Z,31.5
2018-06-08T08:05:52.519Z,31.88
2018-06-08T08:06:33.080Z,30.52
2018-06-08T08:07:13.658Z,30.62
2018-06-08T08:07:54.211Z,31.3
2018-06-08T08:08:34.796Z,31.21
2018-06-08T08:09:15.441Z,30.91
2018-06-08T08:09:55.945Z,30.72
2018-06-08T08:10:36.531Z,31.6
2018-06-08T08:11:17.105Z,32.59
2018-06-08T08:11:57.687Z,31.51
2018-06-08T08:12:38.318Z,30.15
2018-06-08T08:13:18.892Z,31.03
2018-06-08T08:13:59.460Z,30.64
2018-06-08T08:14:40.060Z,30.05
2018-06-08T08:15:20.698Z,30.54
2018-06-08T08:16:01.264Z,31.61
2018-06-08T08:16:41.852Z,31.32
2018-06-08T08:17:22.425Z,31.13
2018-06-08T08:18:03.003Z,31.13
2018-06-08T08:18:43.567Z,30.35
2018-06-08T08:19:24.215Z,30.05
2018-06-08T08:20:04.732Z,29.28
2018-06-08T08:20:45.306Z,29.18
2018-06-08T08:21:25.885Z,29.76
2018-06-08T08:22:06.458Z,30.44
2018-06-08T08:22:47.021Z,30.54
2018-06-08T08:23:27.584Z,30.05
2018-06-08T08:24:08.164Z,28.79
2018-06-08T08:24:48.739Z,29.47
2018-06-08T08:25:29.312Z,31.71
2018-06-08T08:26:09.888Z,31.71
2018-06-08T08:26:50.470Z,31.51
2018-06-08T08:27:31.042Z,31.51
2018-06-08T08:28:11.604Z,30.44
2018-06-08T08:28:52.173Z,31.9
2018-06-08T08:29:32.743Z,32
2018-06-08T08:30:13.325Z,31.13
2018-06-08T08:30:53.903Z,32.49
2018-06-08T08:31:34.480Z,31.32
2018-06-08T08:32:15.047Z,31.32
2018-06-08T08:32:55.624Z,30.54
2018-06-08T08:33:36.199Z,31.03
2018-06-08T08:34:16.786Z,29.66
2018-06-08T08:34:57.351Z,29.57
2018-06-08T08:35:37.921Z,30.54
2018-06-08T08:36:18.484Z,29.76
2018-06-08T08:36:59.049Z,29.38
2018-06-08T08:37:39.638Z,29.47
2018-06-08T08:38:20.189Z,30.54
2018-06-08T08:39:00.760Z,30.64
2018-06-08T08:39:41.341Z,30.15
2018-06-08T08:40:21.880Z,30.54
2018-06-08T08:41:02.462Z,29.66
2018-06-08T08:41:43.047Z,29.18
2018-06-08T08:42:23.599Z,29.57
2018-06-08T08:43:04.167Z,29.76
2018-06-08T08:43:44.743Z,29.57
2018-06-08T08:44:25.308Z,28.79
2018-06-08T08:45:05.882Z,29.18
2018-06-08T08:45:46.465Z,29.47
2018-06-08T08:46:27.034Z,29.18
2018-06-08T08:47:07.612Z,30.05